sensor_id;sensor_type;location;lat;lon;timestamp;P1;durP1;ratioP1;P2;durP2;ratioP2
71655;SDS011;59497;48.798;8.816;2023-02-28T00:00:59;2.93;;;1.20;;
71655;SDS011;59497;48.798;8.816;2023-02-28T00:03:25;4.17;;;1.53;;
71655;SDS011;59497;48.798;8.816;2023-02-28T00:05:50;1.50;;;0.63;;
71655;SDS011;59497;48.798;8.816;2023-02-28T00:08:15;3.67;;;1.50;;
71655;SDS011;59497;48.798;8.816;2023-02-28T00:10:40;3.25;;;1.10;;
71655;SDS011;59497;48.798;8.816;2023-02-28T00:13:06;3.20;;;1.00;;
71655;SDS011;59497;48.798;8.816;2023-02-28T00:15:32;3.77;;;1.43;;
71655;SDS011;59497;48.798;8.816;2023-02-28T00:17:57;2.80;;;1.27;;
71655;SDS011;59497;48.798;8.816;2023-02-28T00:20:22;4.00;;;1.43;;
71655;SDS011;59497;48.798;8.816;2023-02-28T00:22:49;4.70;;;1.20;;
71655;SDS011;59497;48.798;8.816;2023-02-28T00:25:15;4.15;;;1.23;;
71655;SDS011;59497;48.798;8.816;2023-02-28T00:27:40;2.70;;;1.35;;
71655;SDS011;59497;48.798;8.816;2023-02-28T00:30:06;2.47;;;1.17;;
71655;SDS011;59497;48.798;8.816;2023-02-28T00:32:32;2.42;;;1.02;;
71655;SDS011;59497;48.798;8.816;2023-02-28T00:34:57;2.55;;;1.00;;
71655;SDS011;59497;48.798;8.816;2023-02-28T00:37:22;3.27;;;1.10;;
71655;SDS011;59497;48.798;8.816;2023-02-28T00:39:47;3.73;;;1.60;;
71655;SDS011;59497;48.798;8.816;2023-02-28T00:42:13;4.10;;;1.80;;
71655;SDS011;59497;48.798;8.816;2023-02-28T00:44:38;3.30;;;1.50;;
71655;SDS011;59497;48.798;8.816;2023-02-28T00:47:03;3.35;;;1.30;;
71655;SDS011;59497;48.798;8.816;2023-02-28T00:49:28;3.93;;;1.10;;
71655;SDS011;59497;48.798;8.816;2023-02-28T00:51:54;3.23;;;1.00;;
71655;SDS011;59497;48.798;8.816;2023-02-28T00:54:19;3.40;;;1.10;;
71655;SDS011;59497;48.798;8.816;2023-02-28T00:56:45;5.87;;;1.87;;
71655;SDS011;59497;48.798;8.816;2023-02-28T00:59:13;4.10;;;2.10;;
71655;SDS011;59497;48.798;8.816;2023-02-28T01:01:38;3.70;;;1.40;;
71655;SDS011;59497;48.798;8.816;2023-02-28T01:04:04;3.03;;;1.40;;
71655;SDS011;59497;48.798;8.816;2023-02-28T01:06:29;4.60;;;1.67;;
71655;SDS011;59497;48.798;8.816;2023-02-28T01:08:55;2.80;;;1.30;;
71655;SDS011;59497;48.798;8.816;2023-02-28T01:11:20;4.50;;;1.40;;
71655;SDS011;59497;48.798;8.816;2023-02-28T01:13:45;4.80;;;2.03;;
71655;SDS011;59497;48.798;8.816;2023-02-28T01:16:11;4.20;;;1.50;;
71655;SDS011;59497;48.798;8.816;2023-02-28T01:18:36;3.13;;;1.50;;
71655;SDS011;59497;48.798;8.816;2023-02-28T01:21:05;3.08;;;1.33;;
71655;SDS011;59497;48.798;8.816;2023-02-28T01:23:31;3.78;;;1.50;;
71655;SDS011;59497;48.798;8.816;2023-02-28T01:25:57;2.73;;;1.30;;
71655;SDS011;59497;48.798;8.816;2023-02-28T01:28:23;3.77;;;1.83;;
71655;SDS011;59497;48.798;8.816;2023-02-28T01:30:51;3.13;;;1.77;;
71655;SDS011;59497;48.798;8.816;2023-02-28T01:33:16;4.50;;;2.03;;
71655;SDS011;59497;48.798;8.816;2023-02-28T01:35:41;4.30;;;1.87;;
71655;SDS011;59497;48.798;8.816;2023-02-28T01:38:06;4.82;;;1.75;;
71655;SDS011;59497;48.798;8.816;2023-02-28T01:40:31;4.90;;;2.20;;
71655;SDS011;59497;48.798;8.816;2023-02-28T01:42:57;4.07;;;1.70;;
71655;SDS011;59497;48.798;8.816;2023-02-28T01:45:24;4.30;;;1.67;;
71655;SDS011;59497;48.798;8.816;2023-02-28T01:47:50;3.47;;;1.65;;
71655;SDS011;59497;48.798;8.816;2023-02-28T01:50:21;4.20;;;2.00;;
71655;SDS011;59497;48.798;8.816;2023-02-28T01:52:47;4.47;;;1.80;;
71655;SDS011;59497;48.798;8.816;2023-02-28T01:55:13;5.53;;;1.88;;
71655;SDS011;59497;48.798;8.816;2023-02-28T01:57:43;3.80;;;1.90;;
71655;SDS011;59497;48.798;8.816;2023-02-28T02:00:11;2.90;;;1.60;;
71655;SDS011;59497;48.798;8.816;2023-02-28T02:02:38;3.58;;;1.30;;
71655;SDS011;59497;48.798;8.816;2023-02-28T02:05:07;3.20;;;2.28;;
71655;SDS011;59497;48.798;8.816;2023-02-28T02:07:37;4.43;;;1.73;;
71655;SDS011;59497;48.798;8.816;2023-02-28T02:10:13;3.88;;;1.90;;
71655;SDS011;59497;48.798;8.816;2023-02-28T02:12:52;4.28;;;1.60;;
71655;SDS011;59497;48.798;8.816;2023-02-28T02:17:56;4.63;;;2.13;;
71655;SDS011;59497;48.798;8.816;2023-02-28T02:23:15;3.40;;;1.75;;
71655;SDS011;59497;48.798;8.816;2023-02-28T02:28:22;3.83;;;1.90;;
71655;SDS011;59497;48.798;8.816;2023-02-28T02:40:48;4.28;;;2.17;;
71655;SDS011;59497;48.798;8.816;2023-02-28T02:43:20;6.63;;;2.22;;
71655;SDS011;59497;48.798;8.816;2023-02-28T02:45:48;4.35;;;2.47;;
71655;SDS011;59497;48.798;8.816;2023-02-28T02:48:18;3.25;;;1.90;;
71655;SDS011;59497;48.798;8.816;2023-02-28T02:50:49;4.47;;;2.23;;
71655;SDS011;59497;48.798;8.816;2023-02-28T02:53:15;3.63;;;2.00;;
71655;SDS011;59497;48.798;8.816;2023-02-28T02:55:43;5.55;;;2.20;;
71655;SDS011;59497;48.798;8.816;2023-02-28T02:58:14;5.85;;;2.80;;
71655;SDS011;59497;48.798;8.816;2023-02-28T03:00:41;4.85;;;2.30;;
71655;SDS011;59497;48.798;8.816;2023-02-28T03:03:07;4.17;;;2.60;;
71655;SDS011;59497;48.798;8.816;2023-02-28T03:05:35;5.60;;;2.13;;
71655;SDS011;59497;48.798;8.816;2023-02-28T03:08:04;4.72;;;2.55;;
71655;SDS011;59497;48.798;8.816;2023-02-28T03:10:35;6.20;;;2.35;;
71655;SDS011;59497;48.798;8.816;2023-02-28T03:13:03;5.88;;;2.40;;
71655;SDS011;59497;48.798;8.816;2023-02-28T03:15:41;4.10;;;2.37;;
71655;SDS011;59497;48.798;8.816;2023-02-28T03:18:16;5.22;;;2.47;;
71655;SDS011;59497;48.798;8.816;2023-02-28T03:20:49;6.60;;;2.60;;
71655;SDS011;59497;48.798;8.816;2023-02-28T03:23:32;5.85;;;2.45;;
71655;SDS011;59497;48.798;8.816;2023-02-28T03:26:06;4.65;;;2.00;;
71655;SDS011;59497;48.798;8.816;2023-02-28T03:31:13;4.70;;;2.30;;
71655;SDS011;59497;48.798;8.816;2023-02-28T03:33:50;4.07;;;2.05;;
71655;SDS011;59497;48.798;8.816;2023-02-28T03:36:20;5.32;;;2.35;;
71655;SDS011;59497;48.798;8.816;2023-02-28T03:38:48;5.88;;;2.40;;
71655;SDS011;59497;48.798;8.816;2023-02-28T03:41:22;4.35;;;2.20;;
71655;SDS011;59497;48.798;8.816;2023-02-28T03:43:49;6.57;;;2.47;;
71655;SDS011;59497;48.798;8.816;2023-02-28T03:46:16;3.35;;;2.20;;
71655;SDS011;59497;48.798;8.816;2023-02-28T03:48:48;4.80;;;2.60;;
71655;SDS011;59497;48.798;8.816;2023-02-28T03:51:16;5.07;;;2.35;;
71655;SDS011;59497;48.798;8.816;2023-02-28T03:53:44;5.28;;;2.65;;
71655;SDS011;59497;48.798;8.816;2023-02-28T03:58:47;6.13;;;2.60;;
71655;SDS011;59497;48.798;8.816;2023-02-28T04:01:15;4.93;;;2.60;;
71655;SDS011;59497;48.798;8.816;2023-02-28T04:03:41;7.10;;;2.47;;
71655;SDS011;59497;48.798;8.816;2023-02-28T04:06:07;5.47;;;2.80;;
71655;SDS011;59497;48.798;8.816;2023-02-28T04:08:33;4.53;;;2.70;;
71655;SDS011;59497;48.798;8.816;2023-02-28T04:11:01;4.80;;;3.10;;
71655;SDS011;59497;48.798;8.816;2023-02-28T04:13:26;6.20;;;2.80;;
71655;SDS011;59497;48.798;8.816;2023-02-28T04:15:52;5.33;;;2.70;;
71655;SDS011;59497;48.798;8.816;2023-02-28T04:18:17;5.45;;;2.78;;
71655;SDS011;59497;48.798;8.816;2023-02-28T04:20:42;5.30;;;2.40;;
71655;SDS011;59497;48.798;8.816;2023-02-28T04:23:07;4.53;;;2.70;;
71655;SDS011;59497;48.798;8.816;2023-02-28T04:25:32;5.27;;;2.90;;
71655;SDS011;59497;48.798;8.816;2023-02-28T04:27:58;5.33;;;2.67;;
71655;SDS011;59497;48.798;8.816;2023-02-28T04:30:23;6.23;;;2.57;;
71655;SDS011;59497;48.798;8.816;2023-02-28T04:32:48;5.57;;;2.57;;
71655;SDS011;59497;48.798;8.816;2023-02-28T04:35:13;6.30;;;2.50;;
71655;SDS011;59497;48.798;8.816;2023-02-28T04:37:39;5.00;;;2.97;;
71655;SDS011;59497;48.798;8.816;2023-02-28T04:40:04;6.28;;;3.15;;
71655;SDS011;59497;48.798;8.816;2023-02-28T04:42:29;5.63;;;2.83;;
71655;SDS011;59497;48.798;8.816;2023-02-28T04:45:00;5.93;;;2.90;;
71655;SDS011;59497;48.798;8.816;2023-02-28T04:47:25;5.37;;;2.50;;
71655;SDS011;59497;48.798;8.816;2023-02-28T04:49:50;7.23;;;3.17;;
71655;SDS011;59497;48.798;8.816;2023-02-28T04:52:16;5.87;;;3.50;;
71655;SDS011;59497;48.798;8.816;2023-02-28T04:54:41;5.03;;;2.97;;
71655;SDS011;59497;48.798;8.816;2023-02-28T04:57:06;6.20;;;3.27;;
71655;SDS011;59497;48.798;8.816;2023-02-28T04:59:31;6.00;;;2.90;;
71655;SDS011;59497;48.798;8.816;2023-02-28T05:01:57;6.07;;;2.92;;
71655;SDS011;59497;48.798;8.816;2023-02-28T05:04:22;5.20;;;3.40;;
71655;SDS011;59497;48.798;8.816;2023-02-28T05:06:47;5.80;;;2.90;;
71655;SDS011;59497;48.798;8.816;2023-02-28T05:09:13;6.40;;;3.30;;
71655;SDS011;59497;48.798;8.816;2023-02-28T05:11:38;4.30;;;2.65;;
71655;SDS011;59497;48.798;8.816;2023-02-28T05:14:05;6.22;;;2.55;;
71655;SDS011;59497;48.798;8.816;2023-02-28T05:16:31;4.87;;;2.23;;
71655;SDS011;59497;48.798;8.816;2023-02-28T05:18:57;8.02;;;3.55;;
71655;SDS011;59497;48.798;8.816;2023-02-28T05:21:29;5.87;;;2.97;;
71655;SDS011;59497;48.798;8.816;2023-02-28T05:23:55;6.30;;;3.20;;
71655;SDS011;59497;48.798;8.816;2023-02-28T05:26:20;6.00;;;2.70;;
71655;SDS011;59497;48.798;8.816;2023-02-28T05:28:46;5.53;;;2.90;;
71655;SDS011;59497;48.798;8.816;2023-02-28T05:31:11;6.00;;;3.10;;
71655;SDS011;59497;48.798;8.816;2023-02-28T05:33:36;5.45;;;3.15;;
71655;SDS011;59497;48.798;8.816;2023-02-28T05:36:01;6.10;;;3.40;;
71655;SDS011;59497;48.798;8.816;2023-02-28T05:38:26;6.10;;;3.07;;
71655;SDS011;59497;48.798;8.816;2023-02-28T05:40:52;5.50;;;2.63;;
71655;SDS011;59497;48.798;8.816;2023-02-28T05:43:18;5.50;;;3.17;;
71655;SDS011;59497;48.798;8.816;2023-02-28T05:45:43;5.47;;;3.37;;
71655;SDS011;59497;48.798;8.816;2023-02-28T05:48:08;6.93;;;3.08;;
71655;SDS011;59497;48.798;8.816;2023-02-28T05:50:34;6.87;;;3.10;;
71655;SDS011;59497;48.798;8.816;2023-02-28T05:52:59;6.27;;;2.87;;
71655;SDS011;59497;48.798;8.816;2023-02-28T05:55:24;6.27;;;3.37;;
71655;SDS011;59497;48.798;8.816;2023-02-28T05:57:49;6.43;;;3.63;;
71655;SDS011;59497;48.798;8.816;2023-02-28T06:00:14;7.17;;;3.10;;
71655;SDS011;59497;48.798;8.816;2023-02-28T06:02:40;5.47;;;2.67;;
71655;SDS011;59497;48.798;8.816;2023-02-28T06:05:09;5.73;;;2.87;;
71655;SDS011;59497;48.798;8.816;2023-02-28T06:07:38;7.85;;;3.03;;
71655;SDS011;59497;48.798;8.816;2023-02-28T06:10:04;6.65;;;3.08;;
71655;SDS011;59497;48.798;8.816;2023-02-28T06:12:29;5.83;;;3.10;;
71655;SDS011;59497;48.798;8.816;2023-02-28T06:14:54;5.70;;;3.20;;
71655;SDS011;59497;48.798;8.816;2023-02-28T06:17:19;6.43;;;2.90;;
71655;SDS011;59497;48.798;8.816;2023-02-28T06:19:44;6.85;;;3.08;;
71655;SDS011;59497;48.798;8.816;2023-02-28T06:22:09;7.93;;;3.17;;
71655;SDS011;59497;48.798;8.816;2023-02-28T06:24:35;8.23;;;3.50;;
71655;SDS011;59497;48.798;8.816;2023-02-28T06:27:00;7.80;;;3.30;;
71655;SDS011;59497;48.798;8.816;2023-02-28T06:29:30;5.80;;;2.83;;
71655;SDS011;59497;48.798;8.816;2023-02-28T06:31:55;6.27;;;3.23;;
71655;SDS011;59497;48.798;8.816;2023-02-28T06:34:20;13.85;;;3.80;;
71655;SDS011;59497;48.798;8.816;2023-02-28T06:36:45;6.07;;;3.23;;
71655;SDS011;59497;48.798;8.816;2023-02-28T06:39:10;12.60;;;3.37;;
71655;SDS011;59497;48.798;8.816;2023-02-28T06:41:36;7.73;;;3.43;;
71655;SDS011;59497;48.798;8.816;2023-02-28T06:44:10;7.85;;;3.28;;
71655;SDS011;59497;48.798;8.816;2023-02-28T06:46:36;8.45;;;3.67;;
71655;SDS011;59497;48.798;8.816;2023-02-28T06:49:01;11.73;;;3.23;;
71655;SDS011;59497;48.798;8.816;2023-02-28T06:51:27;7.30;;;3.17;;
71655;SDS011;59497;48.798;8.816;2023-02-28T06:53:52;7.30;;;3.30;;
71655;SDS011;59497;48.798;8.816;2023-02-28T06:56:18;9.45;;;3.80;;
71655;SDS011;59497;48.798;8.816;2023-02-28T06:58:49;8.55;;;3.92;;
71655;SDS011;59497;48.798;8.816;2023-02-28T07:01:15;17.80;;;4.25;;
71655;SDS011;59497;48.798;8.816;2023-02-28T07:03:40;7.85;;;3.70;;
71655;SDS011;59497;48.798;8.816;2023-02-28T07:06:05;10.10;;;3.60;;
71655;SDS011;59497;48.798;8.816;2023-02-28T07:08:31;15.90;;;4.40;;
71655;SDS011;59497;48.798;8.816;2023-02-28T07:10:56;8.03;;;3.73;;
71655;SDS011;59497;48.798;8.816;2023-02-28T07:13:22;10.47;;;3.97;;
71655;SDS011;59497;48.798;8.816;2023-02-28T07:15:58;8.88;;;6.25;;
71655;SDS011;59497;48.798;8.816;2023-02-28T07:18:23;8.65;;;3.55;;
71655;SDS011;59497;48.798;8.816;2023-02-28T07:20:49;8.37;;;4.57;;
71655;SDS011;59497;48.798;8.816;2023-02-28T07:23:14;9.17;;;4.10;;
71655;SDS011;59497;48.798;8.816;2023-02-28T07:25:39;7.17;;;3.73;;
71655;SDS011;59497;48.798;8.816;2023-02-28T07:28:04;8.63;;;3.88;;
71655;SDS011;59497;48.798;8.816;2023-02-28T07:30:30;18.97;;;8.43;;
71655;SDS011;59497;48.798;8.816;2023-02-28T07:32:55;9.87;;;4.33;;
71655;SDS011;59497;48.798;8.816;2023-02-28T07:35:21;8.65;;;4.03;;
71655;SDS011;59497;48.798;8.816;2023-02-28T07:37:46;8.27;;;4.23;;
71655;SDS011;59497;48.798;8.816;2023-02-28T07:40:12;11.83;;;5.67;;
71655;SDS011;59497;48.798;8.816;2023-02-28T07:42:37;9.63;;;4.20;;
71655;SDS011;59497;48.798;8.816;2023-02-28T07:45:03;8.80;;;4.23;;
71655;SDS011;59497;48.798;8.816;2023-02-28T07:47:29;7.07;;;3.27;;
71655;SDS011;59497;48.798;8.816;2023-02-28T07:49:54;9.47;;;4.40;;
71655;SDS011;59497;48.798;8.816;2023-02-28T07:52:19;19.43;;;8.37;;
71655;SDS011;59497;48.798;8.816;2023-02-28T07:54:44;10.10;;;4.30;;
71655;SDS011;59497;48.798;8.816;2023-02-28T07:57:10;11.23;;;4.53;;
71655;SDS011;59497;48.798;8.816;2023-02-28T07:59:35;14.33;;;5.80;;
71655;SDS011;59497;48.798;8.816;2023-02-28T08:02:00;19.20;;;8.07;;
71655;SDS011;59497;48.798;8.816;2023-02-28T08:04:25;25.03;;;11.43;;
71655;SDS011;59497;48.798;8.816;2023-02-28T08:06:51;16.43;;;7.20;;
71655;SDS011;59497;48.798;8.816;2023-02-28T08:09:17;13.43;;;6.23;;
71655;SDS011;59497;48.798;8.816;2023-02-28T08:11:43;10.47;;;4.30;;
71655;SDS011;59497;48.798;8.816;2023-02-28T08:14:08;12.40;;;5.80;;
71655;SDS011;59497;48.798;8.816;2023-02-28T08:16:33;11.17;;;4.93;;
71655;SDS011;59497;48.798;8.816;2023-02-28T08:18:58;12.57;;;5.05;;
71655;SDS011;59497;48.798;8.816;2023-02-28T08:21:23;9.77;;;4.53;;
71655;SDS011;59497;48.798;8.816;2023-02-28T08:23:49;11.23;;;4.47;;
71655;SDS011;59497;48.798;8.816;2023-02-28T08:26:15;11.10;;;4.90;;
71655;SDS011;59497;48.798;8.816;2023-02-28T08:28:40;8.27;;;3.67;;
71655;SDS011;59497;48.798;8.816;2023-02-28T08:31:10;11.48;;;4.47;;
71655;SDS011;59497;48.798;8.816;2023-02-28T08:33:35;9.43;;;4.17;;
71655;SDS011;59497;48.798;8.816;2023-02-28T08:36:01;8.02;;;3.35;;
71655;SDS011;59497;48.798;8.816;2023-02-28T08:38:26;7.83;;;3.90;;
71655;SDS011;59497;48.798;8.816;2023-02-28T08:40:58;18.05;;;7.45;;
71655;SDS011;59497;48.798;8.816;2023-02-28T08:43:23;9.52;;;3.88;;
71655;SDS011;59497;48.798;8.816;2023-02-28T08:45:50;13.75;;;4.55;;
71655;SDS011;59497;48.798;8.816;2023-02-28T08:48:16;10.87;;;5.07;;
71655;SDS011;59497;48.798;8.816;2023-02-28T08:50:41;11.43;;;4.80;;
71655;SDS011;59497;48.798;8.816;2023-02-28T08:53:06;32.80;;;4.93;;
71655;SDS011;59497;48.798;8.816;2023-02-28T08:55:31;8.93;;;4.70;;
71655;SDS011;59497;48.798;8.816;2023-02-28T08:57:56;10.07;;;5.10;;
71655;SDS011;59497;48.798;8.816;2023-02-28T09:00:22;5.87;;;3.33;;
71655;SDS011;59497;48.798;8.816;2023-02-28T09:02:47;10.30;;;4.70;;
71655;SDS011;59497;48.798;8.816;2023-02-28T09:05:12;9.13;;;4.67;;
71655;SDS011;59497;48.798;8.816;2023-02-28T09:07:37;9.33;;;4.17;;
71655;SDS011;59497;48.798;8.816;2023-02-28T09:10:03;10.33;;;4.43;;
71655;SDS011;59497;48.798;8.816;2023-02-28T09:12:28;10.13;;;4.70;;
71655;SDS011;59497;48.798;8.816;2023-02-28T09:14:57;26.37;;;4.80;;
71655;SDS011;59497;48.798;8.816;2023-02-28T09:17:22;11.95;;;4.80;;
71655;SDS011;59497;48.798;8.816;2023-02-28T09:19:47;8.40;;;4.37;;
71655;SDS011;59497;48.798;8.816;2023-02-28T09:22:13;9.23;;;4.70;;
71655;SDS011;59497;48.798;8.816;2023-02-28T09:24:38;9.32;;;5.25;;
71655;SDS011;59497;48.798;8.816;2023-02-28T09:27:03;9.70;;;4.13;;
71655;SDS011;59497;48.798;8.816;2023-02-28T09:29:28;12.57;;;5.30;;
71655;SDS011;59497;48.798;8.816;2023-02-28T09:31:53;9.00;;;4.67;;
71655;SDS011;59497;48.798;8.816;2023-02-28T09:34:19;14.10;;;6.03;;
71655;SDS011;59497;48.798;8.816;2023-02-28T09:36:44;10.10;;;4.70;;
71655;SDS011;59497;48.798;8.816;2023-02-28T09:39:10;16.00;;;5.77;;
71655;SDS011;59497;48.798;8.816;2023-02-28T09:41:39;13.67;;;6.10;;
71655;SDS011;59497;48.798;8.816;2023-02-28T09:44:12;8.77;;;4.90;;
71655;SDS011;59497;48.798;8.816;2023-02-28T09:46:40;17.33;;;5.30;;
71655;SDS011;59497;48.798;8.816;2023-02-28T09:49:07;13.80;;;5.65;;
71655;SDS011;59497;48.798;8.816;2023-02-28T09:52:21;11.57;;;5.80;;
71655;SDS011;59497;48.798;8.816;2023-02-28T09:54:22;15.23;;;4.97;;
71655;SDS011;59497;48.798;8.816;2023-02-28T09:56:53;10.20;;;5.68;;
71655;SDS011;59497;48.798;8.816;2023-02-28T09:59:25;9.07;;;4.68;;
71655;SDS011;59497;48.798;8.816;2023-02-28T10:04:41;12.93;;;5.53;;
71655;SDS011;59497;48.798;8.816;2023-02-28T10:07:12;13.45;;;5.88;;
71655;SDS011;59497;48.798;8.816;2023-02-28T10:09:43;24.58;;;9.35;;
71655;SDS011;59497;48.798;8.816;2023-02-28T10:12:10;13.40;;;6.22;;
71655;SDS011;59497;48.798;8.816;2023-02-28T10:14:36;12.00;;;5.05;;
71655;SDS011;59497;48.798;8.816;2023-02-28T10:17:04;11.70;;;5.40;;
71655;SDS011;59497;48.798;8.816;2023-02-28T10:19:34;11.98;;;5.13;;
71655;SDS011;59497;48.798;8.816;2023-02-28T10:22:20;15.20;;;6.00;;
71655;SDS011;59497;48.798;8.816;2023-02-28T10:24:50;9.98;;;5.28;;
71655;SDS011;59497;48.798;8.816;2023-02-28T10:27:23;12.05;;;5.38;;
71655;SDS011;59497;48.798;8.816;2023-02-28T10:29:55;11.07;;;5.13;;
71655;SDS011;59497;48.798;8.816;2023-02-28T10:32:21;11.55;;;5.03;;
71655;SDS011;59497;48.798;8.816;2023-02-28T10:34:57;9.77;;;5.43;;
71655;SDS011;59497;48.798;8.816;2023-02-28T10:37:23;9.55;;;5.07;;
71655;SDS011;59497;48.798;8.816;2023-02-28T10:39:49;10.13;;;5.07;;
71655;SDS011;59497;48.798;8.816;2023-02-28T10:42:21;14.50;;;5.87;;
71655;SDS011;59497;48.798;8.816;2023-02-28T10:44:47;9.80;;;5.53;;
71655;SDS011;59497;48.798;8.816;2023-02-28T10:47:14;11.73;;;5.13;;
71655;SDS011;59497;48.798;8.816;2023-02-28T10:49:39;11.70;;;5.55;;
71655;SDS011;59497;48.798;8.816;2023-02-28T10:52:11;9.60;;;5.23;;
71655;SDS011;59497;48.798;8.816;2023-02-28T10:54:36;11.03;;;5.73;;
71655;SDS011;59497;48.798;8.816;2023-02-28T10:57:16;10.75;;;6.07;;
71655;SDS011;59497;48.798;8.816;2023-02-28T10:59:42;12.55;;;5.82;;
71655;SDS011;59497;48.798;8.816;2023-02-28T11:04:52;12.63;;;5.78;;
71655;SDS011;59497;48.798;8.816;2023-02-28T11:07:18;11.70;;;5.57;;
71655;SDS011;59497;48.798;8.816;2023-02-28T11:09:53;10.47;;;5.53;;
71655;SDS011;59497;48.798;8.816;2023-02-28T11:12:26;9.85;;;5.03;;
71655;SDS011;59497;48.798;8.816;2023-02-28T11:14:57;9.07;;;5.65;;
71655;SDS011;59497;48.798;8.816;2023-02-28T11:17:27;10.50;;;6.00;;
71655;SDS011;59497;48.798;8.816;2023-02-28T11:19:54;12.60;;;6.82;;
71655;SDS011;59497;48.798;8.816;2023-02-28T11:22:20;10.40;;;6.00;;
71655;SDS011;59497;48.798;8.816;2023-02-28T11:24:47;11.15;;;6.20;;
71655;SDS011;59497;48.798;8.816;2023-02-28T11:29:55;14.45;;;6.50;;
71655;SDS011;59497;48.798;8.816;2023-02-28T11:32:21;12.00;;;5.73;;
71655;SDS011;59497;48.798;8.816;2023-02-28T11:34:47;10.73;;;6.05;;
71655;SDS011;59497;48.798;8.816;2023-02-28T11:37:24;11.65;;;6.35;;
71655;SDS011;59497;48.798;8.816;2023-02-28T11:39:50;9.17;;;5.77;;
71655;SDS011;59497;48.798;8.816;2023-02-28T11:45:02;11.85;;;6.00;;
71655;SDS011;59497;48.798;8.816;2023-02-28T11:47:34;10.60;;;5.65;;
71655;SDS011;59497;48.798;8.816;2023-02-28T11:52:57;12.80;;;6.60;;
71655;SDS011;59497;48.798;8.816;2023-02-28T11:55:27;17.98;;;8.85;;
71655;SDS011;59497;48.798;8.816;2023-02-28T11:58:01;10.98;;;6.75;;
71655;SDS011;59497;48.798;8.816;2023-02-28T12:00:33;10.73;;;6.35;;
71655;SDS011;59497;48.798;8.816;2023-02-28T12:03:12;9.57;;;5.55;;
71655;SDS011;59497;48.798;8.816;2023-02-28T12:10:37;15.73;;;6.75;;
71655;SDS011;59497;48.798;8.816;2023-02-28T12:15:35;13.40;;;6.80;;
71655;SDS011;59497;48.798;8.816;2023-02-28T12:20:40;11.38;;;7.00;;
71655;SDS011;59497;48.798;8.816;2023-02-28T12:25:50;10.57;;;6.50;;
71655;SDS011;59497;48.798;8.816;2023-02-28T12:28:21;10.75;;;6.40;;
71655;SDS011;59497;48.798;8.816;2023-02-28T12:30:57;15.70;;;6.67;;
71655;SDS011;59497;48.798;8.816;2023-02-28T12:33:25;13.65;;;6.65;;
71655;SDS011;59497;48.798;8.816;2023-02-28T12:35:56;12.60;;;6.05;;
71655;SDS011;59497;48.798;8.816;2023-02-28T12:38:34;12.43;;;6.88;;
71655;SDS011;59497;48.798;8.816;2023-02-28T12:41:00;12.88;;;6.45;;
71655;SDS011;59497;48.798;8.816;2023-02-28T12:43:34;13.00;;;6.87;;
71655;SDS011;59497;48.798;8.816;2023-02-28T12:46:12;11.40;;;6.38;;
71655;SDS011;59497;48.798;8.816;2023-02-28T12:48:59;12.20;;;6.47;;
71655;SDS011;59497;48.798;8.816;2023-02-28T12:51:25;12.13;;;6.40;;
71655;SDS011;59497;48.798;8.816;2023-02-28T12:53:57;11.48;;;7.05;;
71655;SDS011;59497;48.798;8.816;2023-02-28T12:58:57;12.70;;;6.50;;
71655;SDS011;59497;48.798;8.816;2023-02-28T13:09:04;9.70;;;6.50;;
71655;SDS011;59497;48.798;8.816;2023-02-28T13:11:38;13.25;;;6.72;;
71655;SDS011;59497;48.798;8.816;2023-02-28T13:14:05;12.05;;;7.00;;
71655;SDS011;59497;48.798;8.816;2023-02-28T13:16:48;11.45;;;6.63;;
71655;SDS011;59497;48.798;8.816;2023-02-28T13:19:15;11.02;;;6.32;;
71655;SDS011;59497;48.798;8.816;2023-02-28T13:21:43;11.67;;;6.23;;
71655;SDS011;59497;48.798;8.816;2023-02-28T13:24:09;11.13;;;5.95;;
71655;SDS011;59497;48.798;8.816;2023-02-28T13:29:04;10.63;;;6.53;;
71655;SDS011;59497;48.798;8.816;2023-02-28T13:34:32;10.85;;;6.57;;
71655;SDS011;59497;48.798;8.816;2023-02-28T13:49:53;10.90;;;6.45;;
71655;SDS011;59497;48.798;8.816;2023-02-28T13:52:20;12.40;;;6.83;;
71655;SDS011;59497;48.798;8.816;2023-02-28T13:54:57;12.43;;;6.43;;
71655;SDS011;59497;48.798;8.816;2023-02-28T14:03:02;13.93;;;6.53;;
71655;SDS011;59497;48.798;8.816;2023-02-28T14:05:31;12.65;;;7.13;;
71655;SDS011;59497;48.798;8.816;2023-02-28T14:07:58;10.00;;;6.00;;
71655;SDS011;59497;48.798;8.816;2023-02-28T14:10:26;10.98;;;6.50;;
71655;SDS011;59497;48.798;8.816;2023-02-28T14:17:54;9.10;;;5.85;;
71655;SDS011;59497;48.798;8.816;2023-02-28T14:20:20;14.13;;;6.83;;
71655;SDS011;59497;48.798;8.816;2023-02-28T14:22:53;18.20;;;8.23;;
71655;SDS011;59497;48.798;8.816;2023-02-28T14:27:56;11.47;;;6.60;;
71655;SDS011;59497;48.798;8.816;2023-02-28T14:30:37;11.02;;;6.88;;
71655;SDS011;59497;48.798;8.816;2023-02-28T14:38:16;11.57;;;6.47;;
71655;SDS011;59497;48.798;8.816;2023-02-28T14:40:42;12.80;;;6.78;;
71655;SDS011;59497;48.798;8.816;2023-02-28T14:43:19;14.03;;;7.03;;
71655;SDS011;59497;48.798;8.816;2023-02-28T14:45:48;10.23;;;6.60;;
71655;SDS011;59497;48.798;8.816;2023-02-28T14:48:15;12.32;;;6.00;;
71655;SDS011;59497;48.798;8.816;2023-02-28T14:50:40;9.80;;;5.53;;
71655;SDS011;59497;48.798;8.816;2023-02-28T14:53:15;12.60;;;6.40;;
71655;SDS011;59497;48.798;8.816;2023-02-28T14:55:44;10.20;;;5.40;;
71655;SDS011;59497;48.798;8.816;2023-02-28T14:58:19;11.68;;;6.65;;
71655;SDS011;59497;48.798;8.816;2023-02-28T15:00:47;10.15;;;5.55;;
71655;SDS011;59497;48.798;8.816;2023-02-28T15:03:21;12.45;;;6.65;;
71655;SDS011;59497;48.798;8.816;2023-02-28T15:06:06;10.50;;;5.90;;
71655;SDS011;59497;48.798;8.816;2023-02-28T15:08:32;11.13;;;6.15;;
71655;SDS011;59497;48.798;8.816;2023-02-28T15:11:13;11.13;;;6.05;;
71655;SDS011;59497;48.798;8.816;2023-02-28T15:13:40;9.77;;;6.15;;
71655;SDS011;59497;48.798;8.816;2023-02-28T15:16:49;11.23;;;6.18;;
71655;SDS011;59497;48.798;8.816;2023-02-28T15:19:00;12.23;;;7.20;;
71655;SDS011;59497;48.798;8.816;2023-02-28T15:23:52;12.23;;;6.97;;
71655;SDS011;59497;48.798;8.816;2023-02-28T15:26:20;20.80;;;7.53;;
71655;SDS011;59497;48.798;8.816;2023-02-28T15:28:48;11.80;;;6.68;;
71655;SDS011;59497;48.798;8.816;2023-02-28T15:31:26;11.32;;;6.60;;
71655;SDS011;59497;48.798;8.816;2023-02-28T15:33:56;11.27;;;6.17;;
71655;SDS011;59497;48.798;8.816;2023-02-28T15:36:23;10.82;;;5.95;;
71655;SDS011;59497;48.798;8.816;2023-02-28T15:38:50;10.95;;;6.10;;
71655;SDS011;59497;48.798;8.816;2023-02-28T15:41:23;13.10;;;6.97;;
71655;SDS011;59497;48.798;8.816;2023-02-28T15:43:49;12.68;;;7.00;;
71655;SDS011;59497;48.798;8.816;2023-02-28T15:46:34;13.90;;;7.83;;
71655;SDS011;59497;48.798;8.816;2023-02-28T15:48:59;11.27;;;6.67;;
71655;SDS011;59497;48.798;8.816;2023-02-28T15:51:28;13.13;;;6.87;;
71655;SDS011;59497;48.798;8.816;2023-02-28T15:53:56;13.45;;;7.03;;
71655;SDS011;59497;48.798;8.816;2023-02-28T15:56:23;13.02;;;7.72;;
71655;SDS011;59497;48.798;8.816;2023-02-28T15:58:49;13.32;;;7.38;;
71655;SDS011;59497;48.798;8.816;2023-02-28T16:01:23;13.13;;;7.60;;
71655;SDS011;59497;48.798;8.816;2023-02-28T16:03:50;14.75;;;7.32;;
71655;SDS011;59497;48.798;8.816;2023-02-28T16:08:41;16.30;;;8.63;;
71655;SDS011;59497;48.798;8.816;2023-02-28T16:11:08;18.50;;;9.23;;
71655;SDS011;59497;48.798;8.816;2023-02-28T16:13:33;14.48;;;7.10;;
71655;SDS011;59497;48.798;8.816;2023-02-28T16:15:58;17.97;;;9.50;;
71655;SDS011;59497;48.798;8.816;2023-02-28T16:18:25;14.70;;;7.90;;
71655;SDS011;59497;48.798;8.816;2023-02-28T16:20:50;13.63;;;7.00;;
71655;SDS011;59497;48.798;8.816;2023-02-28T16:23:15;12.83;;;7.53;;
71655;SDS011;59497;48.798;8.816;2023-02-28T16:25:41;14.47;;;6.97;;
71655;SDS011;59497;48.798;8.816;2023-02-28T16:28:08;16.88;;;8.98;;